Shelley, Idaho
Current Conditions -  °F | °C
As of 6:53 PM on Sunday 23 Nov 2014 (Local Time) from KIDA Reporting Station
Few Clouds Few Clouds  
Wind Chill: 21°   Ceiling: Unl
Heat Index: 33°   Visibility: 10mi
Dew Point: 26°   Wind: 22mph
Humidity: 75%   Direction: 200°SSW
Pressure: 30.08"   Gusts: 28mph
Location:  43.38°N, 112.12°W
Report Text: KIDA 240153Z 20019G24KT 10SM FEW090 FEW110 01/M03 A3008 RMK AO2 SLP212 T00061033
Loading
Personal Weather Stations






























Interactive Weather Map New forecast layout! Learn more

10-Day Weather Forecast

Advertisements
Track Severe Weather on mobile